sensor_id;sensor_type;location;lat;lon;timestamp;temperature;humidity
8226;DHT22;4154;48.810;9.012;2022-08-19T00:01:34;21.30;91.40
8226;DHT22;4154;48.810;9.012;2022-08-19T00:04:04;21.30;99.40
8226;DHT22;4154;48.810;9.012;2022-08-19T00:06:33;21.40;99.40
8226;DHT22;4154;48.810;9.012;2022-08-19T00:09:00;21.30;99.40
8226;DHT22;4154;48.810;9.012;2022-08-19T00:13:55;21.30;91.30
8226;DHT22;4154;48.810;9.012;2022-08-19T00:16:22;20.90;99.10
8226;DHT22;4154;48.810;9.012;2022-08-19T00:21:15;21.20;99.50
8226;DHT22;4154;48.810;9.012;2022-08-19T00:23:42;21.30;91.50
8226;DHT22;4154;48.810;9.012;2022-08-19T00:26:09;21.30;91.30
8226;DHT22;4154;48.810;9.012;2022-08-19T00:31:07;21.20;99.30
8226;DHT22;4154;48.810;9.012;2022-08-19T00:36:05;21.20;91.40
8226;DHT22;4154;48.810;9.012;2022-08-19T00:38:33;21.20;91.50
8226;DHT22;4154;48.810;9.012;2022-08-19T00:45:56;21.40;99.90
8226;DHT22;4154;48.810;9.012;2022-08-19T00:50:50;21.20;91.60
8226;DHT22;4154;48.810;9.012;2022-08-19T00:53:22;21.20;91.50
8226;DHT22;4154;48.810;9.012;2022-08-19T00:55:54;21.20;91.50
8226;DHT22;4154;48.810;9.012;2022-08-19T00:58:27;21.20;91.50
8226;DHT22;4154;48.810;9.012;2022-08-19T01:03:22;21.20;91.60
8226;DHT22;4154;48.810;9.012;2022-08-19T01:05:50;21.20;91.60
8226;DHT22;4154;48.810;9.012;2022-08-19T01:10:54;21.10;91.60
8226;DHT22;4154;48.810;9.012;2022-08-19T01:13:25;21.10;99.60
8226;DHT22;4154;48.810;9.012;2022-08-19T01:16:05;21.10;99.70
8226;DHT22;4154;48.810;9.012;2022-08-19T01:18:38;21.10;91.70
8226;DHT22;4154;48.810;9.012;2022-08-19T01:21:11;21.10;91.70
8226;DHT22;4154;48.810;9.012;2022-08-19T01:23:44;21.10;91.70
8226;DHT22;4154;48.810;9.012;2022-08-19T01:26:22;21.10;91.80
8226;DHT22;4154;48.810;9.012;2022-08-19T01:28:52;21.10;91.80
8226;DHT22;4154;48.810;9.012;2022-08-19T01:31:24;21.10;91.80
8226;DHT22;4154;48.810;9.012;2022-08-19T01:33:53;21.10;99.80
8226;DHT22;4154;48.810;9.012;2022-08-19T01:36:31;21.00;99.90
8226;DHT22;4154;48.810;9.012;2022-08-19T01:39:10;21.00;91.90
8226;DHT22;4154;48.810;9.012;2022-08-19T01:41:38;21.10;99.90
8226;DHT22;4154;48.810;9.012;2022-08-19T01:44:05;20.90;99.90
8226;DHT22;4154;48.810;9.012;2022-08-19T01:53:56;21.00;92.10
8226;DHT22;4154;48.810;9.012;2022-08-19T01:56:24;20.90;92.00
8226;DHT22;4154;48.810;9.012;2022-08-19T01:59:00;21.00;99.90
8226;DHT22;4154;48.810;9.012;2022-08-19T02:11:22;20.90;99.90
8226;DHT22;4154;48.810;9.012;2022-08-19T02:13:53;20.80;99.90
8226;DHT22;4154;48.810;9.012;2022-08-19T02:18:46;20.70;92.40
8226;DHT22;4154;48.810;9.012;2022-08-19T02:21:15;20.70;92.40
8226;DHT22;4154;48.810;9.012;2022-08-19T02:26:12;20.70;92.50
8226;DHT22;4154;48.810;9.012;2022-08-19T02:31:11;20.70;92.50
8226;DHT22;4154;48.810;9.012;2022-08-19T02:33:40;20.80;99.70
8226;DHT22;4154;48.810;9.012;2022-08-19T02:36:07;20.70;92.60
8226;DHT22;4154;48.810;9.012;2022-08-19T02:41:06;20.70;92.60
8226;DHT22;4154;48.810;9.012;2022-08-19T02:43:37;20.60;99.90
8226;DHT22;4154;48.810;9.012;2022-08-19T02:46:17;20.70;99.90
8226;DHT22;4154;48.810;9.012;2022-08-19T02:48:51;20.80;99.90
8226;DHT22;4154;48.810;9.012;2022-08-19T02:51:24;20.60;92.70
8226;DHT22;4154;48.810;9.012;2022-08-19T02:56:18;20.60;99.90
8226;DHT22;4154;48.810;9.012;2022-08-19T03:01:32;20.70;99.90
8226;DHT22;4154;48.810;9.012;2022-08-19T03:04:00;20.60;99.90
8226;DHT22;4154;48.810;9.012;2022-08-19T03:06:28;20.70;99.90
8226;DHT22;4154;48.810;9.012;2022-08-19T03:08:55;20.70;99.90
8226;DHT22;4154;48.810;9.012;2022-08-19T03:11:27;20.50;99.90
8226;DHT22;4154;48.810;9.012;2022-08-19T03:16:23;20.60;93.00
8226;DHT22;4154;48.810;9.012;2022-08-19T03:21:20;20.60;93.10
8226;DHT22;4154;48.810;9.012;2022-08-19T03:28:43;20.50;93.00
8226;DHT22;4154;48.810;9.012;2022-08-19T03:31:12;20.60;93.10
8226;DHT22;4154;48.810;9.012;2022-08-19T03:33:40;20.50;93.10
8226;DHT22;4154;48.810;9.012;2022-08-19T03:36:15;20.40;99.90
8226;DHT22;4154;48.810;9.012;2022-08-19T03:38:45;20.50;93.10
8226;DHT22;4154;48.810;9.012;2022-08-19T03:41:29;20.50;99.90
8226;DHT22;4154;48.810;9.012;2022-08-19T03:43:57;20.50;93.30
8226;DHT22;4154;48.810;9.012;2022-08-19T03:46:31;20.50;93.30
8226;DHT22;4154;48.810;9.012;2022-08-19T03:49:00;20.40;93.10
8226;DHT22;4154;48.810;9.012;2022-08-19T03:51:36;20.40;93.10
8226;DHT22;4154;48.810;9.012;2022-08-19T03:54:06;20.40;93.40
8226;DHT22;4154;48.810;9.012;2022-08-19T03:56:38;20.40;93.20
8226;DHT22;4154;48.810;9.012;2022-08-19T03:59:07;20.40;93.20
8226;DHT22;4154;48.810;9.012;2022-08-19T04:04:03;20.70;99.90
8226;DHT22;4154;48.810;9.012;2022-08-19T04:06:31;20.30;93.20
8226;DHT22;4154;48.810;9.012;2022-08-19T04:09:03;20.20;93.20
8226;DHT22;4154;48.810;9.012;2022-08-19T04:11:36;20.20;93.20
8226;DHT22;4154;48.810;9.012;2022-08-19T04:14:07;20.30;93.50
8226;DHT22;4154;48.810;9.012;2022-08-19T04:19:05;20.60;99.90
8226;DHT22;4154;48.810;9.012;2022-08-19T04:26:29;20.30;93.40
8226;DHT22;4154;48.810;9.012;2022-08-19T04:28:58;20.30;93.40
8226;DHT22;4154;48.810;9.012;2022-08-19T04:31:27;20.30;93.50
8226;DHT22;4154;48.810;9.012;2022-08-19T04:33:56;20.30;93.60
8226;DHT22;4154;48.810;9.012;2022-08-19T04:36:28;20.30;93.60
8226;DHT22;4154;48.810;9.012;2022-08-19T04:38:58;20.30;93.60
8226;DHT22;4154;48.810;9.012;2022-08-19T04:44:11;20.30;93.60
8226;DHT22;4154;48.810;9.012;2022-08-19T04:49:05;20.30;93.70
8226;DHT22;4154;48.810;9.012;2022-08-19T04:51:33;20.30;93.70
8226;DHT22;4154;48.810;9.012;2022-08-19T04:54:01;20.30;93.80
8226;DHT22;4154;48.810;9.012;2022-08-19T04:56:28;20.30;93.90
8226;DHT22;4154;48.810;9.012;2022-08-19T04:58:55;20.40;99.90
8226;DHT22;4154;48.810;9.012;2022-08-19T05:01:27;20.20;99.90
8226;DHT22;4154;48.810;9.012;2022-08-19T05:03:58;20.30;93.90
8226;DHT22;4154;48.810;9.012;2022-08-19T05:11:21;20.20;93.90
8226;DHT22;4154;48.810;9.012;2022-08-19T05:16:20;20.30;99.90
8226;DHT22;4154;48.810;9.012;2022-08-19T05:18:47;20.10;99.90
8226;DHT22;4154;48.810;9.012;2022-08-19T05:21:33;20.20;94.00
8226;DHT22;4154;48.810;9.012;2022-08-19T05:24:20;20.30;99.90
8226;DHT22;4154;48.810;9.012;2022-08-19T05:26:48;20.30;94.10
8226;DHT22;4154;48.810;9.012;2022-08-19T05:29:19;20.30;94.00
8226;DHT22;4154;48.810;9.012;2022-08-19T05:31:48;20.30;94.00
8226;DHT22;4154;48.810;9.012;2022-08-19T05:34:15;20.30;94.00
8226;DHT22;4154;48.810;9.012;2022-08-19T05:36:44;20.30;94.00
8226;DHT22;4154;48.810;9.012;2022-08-19T05:39:17;20.30;94.00
8226;DHT22;4154;48.810;9.012;2022-08-19T05:41:53;20.30;94.00
8226;DHT22;4154;48.810;9.012;2022-08-19T05:49:21;20.30;94.20
8226;DHT22;4154;48.810;9.012;2022-08-19T05:54:15;20.40;99.90
8226;DHT22;4154;48.810;9.012;2022-08-19T05:59:09;20.30;99.90
8226;DHT22;4154;48.810;9.012;2022-08-19T06:01:41;20.30;99.90
8226;DHT22;4154;48.810;9.012;2022-08-19T06:04:11;19.90;99.90
8226;DHT22;4154;48.810;9.012;2022-08-19T06:11:41;20.30;99.90
8226;DHT22;4154;48.810;9.012;2022-08-19T06:14:12;20.30;99.90
8226;DHT22;4154;48.810;9.012;2022-08-19T06:16:41;20.40;99.90
8226;DHT22;4154;48.810;9.012;2022-08-19T06:19:10;20.30;94.30
8226;DHT22;4154;48.810;9.012;2022-08-19T06:21:41;20.30;94.30
8226;DHT22;4154;48.810;9.012;2022-08-19T06:24:10;20.30;94.30
8226;DHT22;4154;48.810;9.012;2022-08-19T06:26:40;20.30;94.30
8226;DHT22;4154;48.810;9.012;2022-08-19T06:29:08;20.20;94.30
8226;DHT22;4154;48.810;9.012;2022-08-19T06:34:05;20.20;94.30
8226;DHT22;4154;48.810;9.012;2022-08-19T06:36:38;20.30;99.90
8226;DHT22;4154;48.810;9.012;2022-08-19T06:39:21;20.30;94.40
8226;DHT22;4154;48.810;9.012;2022-08-19T06:41:51;20.30;94.40
8226;DHT22;4154;48.810;9.012;2022-08-19T06:44:21;20.30;94.40
8226;DHT22;4154;48.810;9.012;2022-08-19T06:46:49;20.20;99.90
8226;DHT22;4154;48.810;9.012;2022-08-19T06:54:10;20.30;99.90
8226;DHT22;4154;48.810;9.012;2022-08-19T06:56:36;20.50;99.90
8226;DHT22;4154;48.810;9.012;2022-08-19T06:59:09;20.30;99.90
8226;DHT22;4154;48.810;9.012;2022-08-19T07:01:39;20.40;94.30
8226;DHT22;4154;48.810;9.012;2022-08-19T07:04:08;20.10;99.90
8226;DHT22;4154;48.810;9.012;2022-08-19T07:06:36;20.40;94.20
8226;DHT22;4154;48.810;9.012;2022-08-19T07:09:07;20.40;94.20
8226;DHT22;4154;48.810;9.012;2022-08-19T07:14:01;20.50;95.70
8226;DHT22;4154;48.810;9.012;2022-08-19T07:21:27;20.30;94.40
8226;DHT22;4154;48.810;9.012;2022-08-19T07:28:55;20.30;94.50
8226;DHT22;4154;48.810;9.012;2022-08-19T07:31:25;20.50;99.90
8226;DHT22;4154;48.810;9.012;2022-08-19T07:33:53;20.40;94.40
8226;DHT22;4154;48.810;9.012;2022-08-19T07:36:26;20.40;94.30
8226;DHT22;4154;48.810;9.012;2022-08-19T07:38:59;20.50;94.40
8226;DHT22;4154;48.810;9.012;2022-08-19T07:41:28;20.50;94.90
8226;DHT22;4154;48.810;9.012;2022-08-19T07:48:50;20.60;94.50
8226;DHT22;4154;48.810;9.012;2022-08-19T07:51:20;20.60;94.40
8226;DHT22;4154;48.810;9.012;2022-08-19T07:53:49;20.70;99.90
8226;DHT22;4154;48.810;9.012;2022-08-19T07:56:20;20.70;94.50
8226;DHT22;4154;48.810;9.012;2022-08-19T07:58:48;20.70;94.30
8226;DHT22;4154;48.810;9.012;2022-08-19T08:01:18;20.60;94.20
8226;DHT22;4154;48.810;9.012;2022-08-19T08:03:50;20.60;99.90
8226;DHT22;4154;48.810;9.012;2022-08-19T08:09:28;20.50;99.90
8226;DHT22;4154;48.810;9.012;2022-08-19T08:12:02;20.60;94.20
8226;DHT22;4154;48.810;9.012;2022-08-19T08:14:44;20.60;94.20
8226;DHT22;4154;48.810;9.012;2022-08-19T08:17:14;20.60;94.20
8226;DHT22;4154;48.810;9.012;2022-08-19T08:19:42;20.60;94.10
8226;DHT22;4154;48.810;9.012;2022-08-19T08:22:11;20.60;94.20
8226;DHT22;4154;48.810;9.012;2022-08-19T08:25:02;20.60;94.30
8226;DHT22;4154;48.810;9.012;2022-08-19T08:27:36;20.60;94.20
8226;DHT22;4154;48.810;9.012;2022-08-19T08:30:06;20.50;94.10
8226;DHT22;4154;48.810;9.012;2022-08-19T08:35:06;20.50;99.90
8226;DHT22;4154;48.810;9.012;2022-08-19T08:37:34;20.90;99.90
8226;DHT22;4154;48.810;9.012;2022-08-19T08:40:04;22.20;99.90
8226;DHT22;4154;48.810;9.012;2022-08-19T08:42:43;20.60;94.40
8226;DHT22;4154;48.810;9.012;2022-08-19T08:45:18;20.60;94.30
8226;DHT22;4154;48.810;9.012;2022-08-19T08:47:48;20.60;94.30
8226;DHT22;4154;48.810;9.012;2022-08-19T08:50:38;20.50;99.90
8226;DHT22;4154;48.810;9.012;2022-08-19T08:53:07;20.50;94.40
8226;DHT22;4154;48.810;9.012;2022-08-19T08:55:36;20.50;99.90
8226;DHT22;4154;48.810;9.012;2022-08-19T08:58:11;21.10;99.90
8226;DHT22;4154;48.810;9.012;2022-08-19T09:00:52;20.50;99.90
8226;DHT22;4154;48.810;9.012;2022-08-19T09:03:23;20.60;99.90
8226;DHT22;4154;48.810;9.012;2022-08-19T09:09:02;20.80;99.90
8226;DHT22;4154;48.810;9.012;2022-08-19T09:17:09;20.80;94.30
8226;DHT22;4154;48.810;9.012;2022-08-19T09:19:49;20.80;94.30
8226;DHT22;4154;48.810;9.012;2022-08-19T09:22:20;20.90;94.40
8226;DHT22;4154;48.810;9.012;2022-08-19T09:24:50;20.90;94.30
8226;DHT22;4154;48.810;9.012;2022-08-19T09:29:46;21.00;99.90
8226;DHT22;4154;48.810;9.012;2022-08-19T09:32:14;20.80;99.90
8226;DHT22;4154;48.810;9.012;2022-08-19T09:34:40;20.90;99.90
8226;DHT22;4154;48.810;9.012;2022-08-19T09:37:06;21.00;99.90
8226;DHT22;4154;48.810;9.012;2022-08-19T09:44:25;21.10;99.90
8226;DHT22;4154;48.810;9.012;2022-08-19T09:49:18;21.10;94.30
8226;DHT22;4154;48.810;9.012;2022-08-19T09:51:50;21.10;94.20
8226;DHT22;4154;48.810;9.012;2022-08-19T10:06:35;21.20;94.10
8226;DHT22;4154;48.810;9.012;2022-08-19T10:09:05;21.20;94.00
8226;DHT22;4154;48.810;9.012;2022-08-19T10:11:34;21.20;94.10
8226;DHT22;4154;48.810;9.012;2022-08-19T10:14:01;21.20;94.00
8226;DHT22;4154;48.810;9.012;2022-08-19T10:18:54;21.20;93.80
8226;DHT22;4154;48.810;9.012;2022-08-19T10:21:25;21.30;93.80
8226;DHT22;4154;48.810;9.012;2022-08-19T10:23:54;21.30;93.90
8226;DHT22;4154;48.810;9.012;2022-08-19T10:26:27;21.30;99.90
8226;DHT22;4154;48.810;9.012;2022-08-19T10:28:56;21.30;93.90
8226;DHT22;4154;48.810;9.012;2022-08-19T10:31:26;21.40;94.00
8226;DHT22;4154;48.810;9.012;2022-08-19T10:36:28;21.40;93.80
8226;DHT22;4154;48.810;9.012;2022-08-19T10:39:00;21.40;93.70
8226;DHT22;4154;48.810;9.012;2022-08-19T10:41:31;21.50;93.60
8226;DHT22;4154;48.810;9.012;2022-08-19T10:44:01;21.50;93.50
8226;DHT22;4154;48.810;9.012;2022-08-19T10:46:33;21.60;93.10
8226;DHT22;4154;48.810;9.012;2022-08-19T10:49:02;21.60;92.90
8226;DHT22;4154;48.810;9.012;2022-08-19T10:54:16;21.80;99.90
8226;DHT22;4154;48.810;9.012;2022-08-19T10:59:27;21.90;99.90
8226;DHT22;4154;48.810;9.012;2022-08-19T11:01:59;21.90;92.20
8226;DHT22;4154;48.810;9.012;2022-08-19T11:09:22;22.10;92.40
8226;DHT22;4154;48.810;9.012;2022-08-19T11:14:19;22.20;92.50
8226;DHT22;4154;48.810;9.012;2022-08-19T11:16:47;22.20;92.20
8226;DHT22;4154;48.810;9.012;2022-08-19T11:21:46;22.30;92.30
8226;DHT22;4154;48.810;9.012;2022-08-19T11:24:17;22.20;99.80
8226;DHT22;4154;48.810;9.012;2022-08-19T11:26:49;22.40;92.10
8226;DHT22;4154;48.810;9.012;2022-08-19T11:29:20;22.40;92.20
8226;DHT22;4154;48.810;9.012;2022-08-19T11:31:48;22.40;92.20
8226;DHT22;4154;48.810;9.012;2022-08-19T11:34:19;22.40;92.40
8226;DHT22;4154;48.810;9.012;2022-08-19T11:36:50;22.50;90.80
8226;DHT22;4154;48.810;9.012;2022-08-19T11:39:18;22.50;90.80
8226;DHT22;4154;48.810;9.012;2022-08-19T12:01:24;22.90;90.10
8226;DHT22;4154;48.810;9.012;2022-08-19T12:03:52;22.90;89.60
8226;DHT22;4154;48.810;9.012;2022-08-19T12:06:31;22.90;89.10
8226;DHT22;4154;48.810;9.012;2022-08-19T12:09:00;22.90;89.40
8226;DHT22;4154;48.810;9.012;2022-08-19T12:16:26;22.90;88.50
8226;DHT22;4154;48.810;9.012;2022-08-19T12:18:55;22.90;88.90
8226;DHT22;4154;48.810;9.012;2022-08-19T12:21:24;22.90;88.60
8226;DHT22;4154;48.810;9.012;2022-08-19T12:23:54;23.00;88.70
8226;DHT22;4154;48.810;9.012;2022-08-19T12:36:10;23.10;85.90
8226;DHT22;4154;48.810;9.012;2022-08-19T12:38:38;23.00;96.00
8226;DHT22;4154;48.810;9.012;2022-08-19T12:41:05;23.30;96.20
8226;DHT22;4154;48.810;9.012;2022-08-19T12:43:36;23.20;85.50
8226;DHT22;4154;48.810;9.012;2022-08-19T12:46:04;23.20;85.20
8226;DHT22;4154;48.810;9.012;2022-08-19T12:48:32;23.20;85.60
8226;DHT22;4154;48.810;9.012;2022-08-19T12:53:25;23.30;95.00
8226;DHT22;4154;48.810;9.012;2022-08-19T12:55:55;23.80;95.40
8226;DHT22;4154;48.810;9.012;2022-08-19T12:58:22;23.30;95.20
8226;DHT22;4154;48.810;9.012;2022-08-19T13:00:48;23.60;95.00
8226;DHT22;4154;48.810;9.012;2022-08-19T13:03:14;23.70;94.90
8226;DHT22;4154;48.810;9.012;2022-08-19T13:05:41;23.70;82.60
8226;DHT22;4154;48.810;9.012;2022-08-19T13:10:35;23.80;83.10
8226;DHT22;4154;48.810;9.012;2022-08-19T13:13:03;23.80;83.30
8226;DHT22;4154;48.810;9.012;2022-08-19T13:15:37;23.80;83.10
8226;DHT22;4154;48.810;9.012;2022-08-19T13:18:06;23.80;82.50
8226;DHT22;4154;48.810;9.012;2022-08-19T13:20:35;23.80;83.40
8226;DHT22;4154;48.810;9.012;2022-08-19T13:23:03;23.60;94.40
8226;DHT22;4154;48.810;9.012;2022-08-19T13:33:08;24.00;81.60
8226;DHT22;4154;48.810;9.012;2022-08-19T13:35:57;24.10;90.40
8226;DHT22;4154;48.810;9.012;2022-08-19T13:40:54;23.90;81.60
8226;DHT22;4154;48.810;9.012;2022-08-19T13:43:23;23.90;80.50
8226;DHT22;4154;48.810;9.012;2022-08-19T13:45:53;23.90;80.70
8226;DHT22;4154;48.810;9.012;2022-08-19T13:48:21;24.00;79.90
8226;DHT22;4154;48.810;9.012;2022-08-19T13:53:16;24.10;79.80
8226;DHT22;4154;48.810;9.012;2022-08-19T13:58:10;24.10;78.90
8226;DHT22;4154;48.810;9.012;2022-08-19T14:00:40;24.10;79.40
8226;DHT22;4154;48.810;9.012;2022-08-19T14:12:59;24.20;79.00
8226;DHT22;4154;48.810;9.012;2022-08-19T14:15:27;24.20;79.10
8226;DHT22;4154;48.810;9.012;2022-08-19T14:20:19;24.30;79.20
8226;DHT22;4154;48.810;9.012;2022-08-19T14:22:47;24.00;92.80
8226;DHT22;4154;48.810;9.012;2022-08-19T14:25:21;24.30;93.10
8226;DHT22;4154;48.810;9.012;2022-08-19T14:27:49;24.40;93.20
8226;DHT22;4154;48.810;9.012;2022-08-19T14:30:18;24.40;81.40
8226;DHT22;4154;48.810;9.012;2022-08-19T14:35:14;24.40;80.30
8226;DHT22;4154;48.810;9.012;2022-08-19T14:37:42;24.50;80.60
8226;DHT22;4154;48.810;9.012;2022-08-19T14:40:10;24.60;93.00
8226;DHT22;4154;48.810;9.012;2022-08-19T14:45:04;24.40;92.80
8226;DHT22;4154;48.810;9.012;2022-08-19T14:47:31;24.70;93.10
8226;DHT22;4154;48.810;9.012;2022-08-19T14:59:43;24.60;79.50
8226;DHT22;4154;48.810;9.012;2022-08-19T15:02:10;24.60;79.70
8226;DHT22;4154;48.810;9.012;2022-08-19T15:07:03;24.80;92.50
8226;DHT22;4154;48.810;9.012;2022-08-19T15:09:31;24.90;78.70
8226;DHT22;4154;48.810;9.012;2022-08-19T15:21:44;25.20;91.40
8226;DHT22;4154;48.810;9.012;2022-08-19T15:29:03;25.60;75.10
8226;DHT22;4154;48.810;9.012;2022-08-19T15:31:30;25.70;74.90
8226;DHT22;4154;48.810;9.012;2022-08-19T15:34:02;25.90;90.40
8226;DHT22;4154;48.810;9.012;2022-08-19T15:38:57;25.60;90.50
8226;DHT22;4154;48.810;9.012;2022-08-19T15:41:28;25.60;74.30
8226;DHT22;4154;48.810;9.012;2022-08-19T15:44:00;25.60;73.60
8226;DHT22;4154;48.810;9.012;2022-08-19T15:46:31;25.60;74.10
8226;DHT22;4154;48.810;9.012;2022-08-19T15:51:29;25.60;71.50
8226;DHT22;4154;48.810;9.012;2022-08-19T15:53:58;25.40;88.50
8226;DHT22;4154;48.810;9.012;2022-08-19T15:59:12;25.60;81.10
8226;DHT22;4154;48.810;9.012;2022-08-19T16:07:25;25.40;77.80
8226;DHT22;4154;48.810;9.012;2022-08-19T16:17:09;25.20;90.00
8226;DHT22;4154;48.810;9.012;2022-08-19T16:19:37;25.20;72.90
8226;DHT22;4154;48.810;9.012;2022-08-19T16:22:05;25.10;80.20
8226;DHT22;4154;48.810;9.012;2022-08-19T16:27:00;25.20;89.40
8226;DHT22;4154;48.810;9.012;2022-08-19T16:29:27;25.00;73.20
8226;DHT22;4154;48.810;9.012;2022-08-19T16:31:54;25.00;73.90
8226;DHT22;4154;48.810;9.012;2022-08-19T16:34:22;25.00;72.80
8226;DHT22;4154;48.810;9.012;2022-08-19T16:39:16;24.90;72.60
8226;DHT22;4154;48.810;9.012;2022-08-19T16:41:44;24.90;72.50
8226;DHT22;4154;48.810;9.012;2022-08-19T16:44:12;24.80;73.10
8226;DHT22;4154;48.810;9.012;2022-08-19T16:49:08;24.80;73.50
8226;DHT22;4154;48.810;9.012;2022-08-19T16:54:03;24.80;90.30
8226;DHT22;4154;48.810;9.012;2022-08-19T17:03:52;24.60;91.20
8226;DHT22;4154;48.810;9.012;2022-08-19T17:06:24;24.60;79.20
8226;DHT22;4154;48.810;9.012;2022-08-19T17:08:54;24.60;85.60
8226;DHT22;4154;48.810;9.012;2022-08-19T17:11:24;24.50;87.00
8226;DHT22;4154;48.810;9.012;2022-08-19T17:16:22;24.40;88.30
8226;DHT22;4154;48.810;9.012;2022-08-19T17:18:50;24.30;88.30
8226;DHT22;4154;48.810;9.012;2022-08-19T17:21:21;24.20;88.70
8226;DHT22;4154;48.810;9.012;2022-08-19T17:26:17;24.20;90.50
8226;DHT22;4154;48.810;9.012;2022-08-19T17:36:02;23.90;98.60
8226;DHT22;4154;48.810;9.012;2022-08-19T17:38:29;23.90;91.70
8226;DHT22;4154;48.810;9.012;2022-08-19T18:03:03;23.50;93.20
8226;DHT22;4154;48.810;9.012;2022-08-19T18:05:33;23.50;93.20
8226;DHT22;4154;48.810;9.012;2022-08-19T18:17:56;23.20;99.90
8226;DHT22;4154;48.810;9.012;2022-08-19T18:22:49;23.30;93.40
8226;DHT22;4154;48.810;9.012;2022-08-19T18:25:22;23.30;93.30
8226;DHT22;4154;48.810;9.012;2022-08-19T18:27:58;23.30;99.90
8226;DHT22;4154;48.810;9.012;2022-08-19T18:30:27;23.30;93.30
8226;DHT22;4154;48.810;9.012;2022-08-19T18:33:00;23.20;93.30
8226;DHT22;4154;48.810;9.012;2022-08-19T18:35:29;23.30;99.90
8226;DHT22;4154;48.810;9.012;2022-08-19T18:37:59;23.20;99.90
8226;DHT22;4154;48.810;9.012;2022-08-19T18:53:57;23.10;92.70
8226;DHT22;4154;48.810;9.012;2022-08-19T18:56:24;23.10;92.50
8226;DHT22;4154;48.810;9.012;2022-08-19T18:58:59;23.00;91.60
8226;DHT22;4154;48.810;9.012;2022-08-19T19:01:32;23.30;91.20
8226;DHT22;4154;48.810;9.012;2022-08-19T19:04:04;23.00;88.50
8226;DHT22;4154;48.810;9.012;2022-08-19T19:06:36;22.90;86.70
8226;DHT22;4154;48.810;9.012;2022-08-19T19:09:10;22.70;86.00
8226;DHT22;4154;48.810;9.012;2022-08-19T19:11:43;22.90;86.20
8226;DHT22;4154;48.810;9.012;2022-08-19T19:14:18;22.90;85.00
8226;DHT22;4154;48.810;9.012;2022-08-19T19:21:43;22.90;84.80
8226;DHT22;4154;48.810;9.012;2022-08-19T19:24:20;22.90;84.40
8226;DHT22;4154;48.810;9.012;2022-08-19T19:26:50;22.90;84.00
8226;DHT22;4154;48.810;9.012;2022-08-19T19:29:18;22.90;83.90
8226;DHT22;4154;48.810;9.012;2022-08-19T19:31:45;22.70;95.10
8226;DHT22;4154;48.810;9.012;2022-08-19T19:34:13;22.90;83.80
8226;DHT22;4154;48.810;9.012;2022-08-19T19:39:06;22.90;83.10
8226;DHT22;4154;48.810;9.012;2022-08-19T19:41:33;22.90;82.40
8226;DHT22;4154;48.810;9.012;2022-08-19T19:44:01;22.90;82.10
8226;DHT22;4154;48.810;9.012;2022-08-19T19:46:30;22.90;94.30
8226;DHT22;4154;48.810;9.012;2022-08-19T19:51:24;22.70;94.20
8226;DHT22;4154;48.810;9.012;2022-08-19T19:53:51;22.90;94.00
8226;DHT22;4154;48.810;9.012;2022-08-19T20:03:42;22.90;80.70
8226;DHT22;4154;48.810;9.012;2022-08-19T20:06:11;22.90;80.50
8226;DHT22;4154;48.810;9.012;2022-08-19T20:11:36;22.90;93.50
8226;DHT22;4154;48.810;9.012;2022-08-19T20:14:13;22.90;93.50
8226;DHT22;4154;48.810;9.012;2022-08-19T20:16:42;22.80;80.50
8226;DHT22;4154;48.810;9.012;2022-08-19T20:19:12;22.80;80.30
8226;DHT22;4154;48.810;9.012;2022-08-19T20:21:40;22.80;93.70
8226;DHT22;4154;48.810;9.012;2022-08-19T20:24:11;22.80;80.60
8226;DHT22;4154;48.810;9.012;2022-08-19T20:26:45;22.80;80.60
8226;DHT22;4154;48.810;9.012;2022-08-19T20:29:13;22.80;80.90
8226;DHT22;4154;48.810;9.012;2022-08-19T20:34:11;22.80;93.60
8226;DHT22;4154;48.810;9.012;2022-08-19T20:43:58;22.80;80.40
8226;DHT22;4154;48.810;9.012;2022-08-19T21:03:39;22.70;81.10
8226;DHT22;4154;48.810;9.012;2022-08-19T21:06:10;22.60;94.00
8226;DHT22;4154;48.810;9.012;2022-08-19T21:08:38;22.70;81.60
8226;DHT22;4154;48.810;9.012;2022-08-19T21:11:05;22.60;94.10
8226;DHT22;4154;48.810;9.012;2022-08-19T21:13:32;22.70;82.10
8226;DHT22;4154;48.810;9.012;2022-08-19T21:20:52;22.70;83.10
8226;DHT22;4154;48.810;9.012;2022-08-19T21:23:22;22.70;83.50
8226;DHT22;4154;48.810;9.012;2022-08-19T21:25:54;22.70;95.40
8226;DHT22;4154;48.810;9.012;2022-08-19T21:28:22;22.60;85.30
8226;DHT22;4154;48.810;9.012;2022-08-19T21:30:51;22.70;84.60
8226;DHT22;4154;48.810;9.012;2022-08-19T21:50:25;22.60;86.50
8226;DHT22;4154;48.810;9.012;2022-08-19T21:55:19;22.50;87.20
8226;DHT22;4154;48.810;9.012;2022-08-19T22:00:16;22.40;97.10
8226;DHT22;4154;48.810;9.012;2022-08-19T22:10:05;22.40;97.40
8226;DHT22;4154;48.810;9.012;2022-08-19T22:12:34;22.40;88.10
8226;DHT22;4154;48.810;9.012;2022-08-19T22:15:04;22.50;97.50
8226;DHT22;4154;48.810;9.012;2022-08-19T22:22:31;22.30;97.40
8226;DHT22;4154;48.810;9.012;2022-08-19T22:25:13;22.30;97.40
8226;DHT22;4154;48.810;9.012;2022-08-19T22:30:10;22.30;97.60
8226;DHT22;4154;48.810;9.012;2022-08-19T22:40:01;22.30;97.40
8226;DHT22;4154;48.810;9.012;2022-08-19T22:44:57;22.20;88.30
8226;DHT22;4154;48.810;9.012;2022-08-19T22:49:52;22.50;97.80
8226;DHT22;4154;48.810;9.012;2022-08-19T22:54:46;22.20;88.40
8226;DHT22;4154;48.810;9.012;2022-08-19T22:57:15;22.20;88.40
8226;DHT22;4154;48.810;9.012;2022-08-19T22:59:45;22.20;88.20
8226;DHT22;4154;48.810;9.012;2022-08-19T23:02:23;22.10;97.70
8226;DHT22;4154;48.810;9.012;2022-08-19T23:07:19;22.10;88.80
8226;DHT22;4154;48.810;9.012;2022-08-19T23:12:15;22.00;88.90
8226;DHT22;4154;48.810;9.012;2022-08-19T23:27:01;21.80;98.30
8226;DHT22;4154;48.810;9.012;2022-08-19T23:32:33;21.70;90.10
8226;DHT22;4154;48.810;9.012;2022-08-19T23:44:45;21.50;90.40
8226;DHT22;4154;48.810;9.012;2022-08-19T23:52:04;21.50;90.50
